createdAt,value
2022-10-24T00:01:41.645Z,11.70
2022-10-24T00:04:10.706Z,11.60
2022-10-24T00:06:39.047Z,11.60
2022-10-24T00:09:07.337Z,11.60
2022-10-24T00:11:36.372Z,11.60
2022-10-24T00:14:04.682Z,11.50
2022-10-24T00:16:35.801Z,11.50
2022-10-24T00:19:04.135Z,11.50
2022-10-24T00:21:32.320Z,11.50
2022-10-24T00:24:00.547Z,11.40
2022-10-24T00:26:30.103Z,11.40
2022-10-24T00:28:58.367Z,11.30
2022-10-24T00:31:26.621Z,11.20
2022-10-24T00:33:56.730Z,11.20
2022-10-24T00:36:26.206Z,11.20
2022-10-24T00:38:55.538Z,11.20
2022-10-24T00:41:26.274Z,11.20
2022-10-24T00:44:20.961Z,11.30
2022-10-24T00:46:52.987Z,11.30
2022-10-24T00:49:26.929Z,11.30
2022-10-24T00:52:00.030Z,11.20
2022-10-24T00:54:28.298Z,11.10
2022-10-24T00:57:03.703Z,11.00
2022-10-24T00:59:34.817Z,11.00
2022-10-24T01:02:03.673Z,10.90
2022-10-24T01:04:33.261Z,10.90
2022-10-24T01:07:24.667Z,10.80
2022-10-24T01:10:12.649Z,10.90
2022-10-24T01:12:52.205Z,10.80
2022-10-24T01:15:24.862Z,10.90
2022-10-24T01:18:01.265Z,11.00
2022-10-24T01:20:53.434Z,11.00
2022-10-24T01:23:59.084Z,11.00
2022-10-24T01:26:55.062Z,11.00
2022-10-24T01:29:52.606Z,11.00
2022-10-24T01:32:32.592Z,11.10
2022-10-24T01:35:06.279Z,11.10
2022-10-24T01:37:40.446Z,11.10
2022-10-24T01:40:14.539Z,11.20
2022-10-24T01:42:44.267Z,11.20
2022-10-24T01:45:21.304Z,11.40
2022-10-24T01:47:53.644Z,11.40
2022-10-24T01:50:24.960Z,11.40
2022-10-24T01:52:54.321Z,11.40
2022-10-24T01:55:23.178Z,11.40
2022-10-24T01:57:51.400Z,11.30
2022-10-24T02:00:24.342Z,11.30
2022-10-24T02:02:56.578Z,11.50
2022-10-24T02:05:30.005Z,11.50
2022-10-24T02:08:02.110Z,11.40
2022-10-24T02:10:33.913Z,11.40
2022-10-24T02:13:06.426Z,11.40
2022-10-24T02:15:41.565Z,11.30
2022-10-24T02:18:10.656Z,11.30
2022-10-24T02:20:45.402Z,11.30
2022-10-24T02:23:19.394Z,11.30
2022-10-24T02:25:53.039Z,11.40
2022-10-24T02:28:24.357Z,11.50
2022-10-24T02:30:58.971Z,11.50
2022-10-24T02:33:29.224Z,11.60
2022-10-24T02:35:58.358Z,11.80
2022-10-24T02:38:31.457Z,11.90
2022-10-24T02:41:01.644Z,11.90
2022-10-24T02:43:32.712Z,11.90
2022-10-24T02:46:03.328Z,11.90
2022-10-24T02:48:37.205Z,11.90
2022-10-24T02:51:06.516Z,11.90
2022-10-24T02:53:37.678Z,11.90
2022-10-24T02:56:06.498Z,11.90
2022-10-24T02:58:35.303Z,11.80
2022-10-24T03:01:05.585Z,11.70
2022-10-24T03:03:33.882Z,11.70
2022-10-24T03:06:02.094Z,11.60
2022-10-24T03:08:30.323Z,11.60
2022-10-24T03:10:58.543Z,11.50
2022-10-24T03:13:26.866Z,11.50
2022-10-24T03:15:55.146Z,11.50
2022-10-24T03:18:24.872Z,11.50
2022-10-24T03:20:53.379Z,11.40
2022-10-24T03:23:22.210Z,11.40
2022-10-24T03:25:50.501Z,11.50
2022-10-24T03:28:18.762Z,11.40
2022-10-24T03:30:47.040Z,11.40
2022-10-24T03:33:15.294Z,11.40
2022-10-24T03:35:45.022Z,11.30
2022-10-24T03:38:13.286Z,11.30
2022-10-24T03:40:41.640Z,11.30
2022-10-24T03:43:10.038Z,11.30
2022-10-24T03:45:39.434Z,11.30
2022-10-24T03:48:08.397Z,11.30
2022-10-24T03:50:36.936Z,11.30
2022-10-24T03:53:06.685Z,11.30
2022-10-24T03:55:35.235Z,11.30
2022-10-24T03:58:03.542Z,11.30
2022-10-24T04:00:34.670Z,11.20
2022-10-24T04:03:02.953Z,11.10
2022-10-24T04:05:31.286Z,11.00
2022-10-24T04:07:59.531Z,11.00
2022-10-24T04:10:29.173Z,11.00
2022-10-24T04:12:57.445Z,10.90
2022-10-24T04:15:25.703Z,11.00
2022-10-24T04:17:53.943Z,11.10
2022-10-24T04:20:23.243Z,11.20
2022-10-24T04:22:51.829Z,11.20
2022-10-24T04:25:20.434Z,11.20
2022-10-24T04:27:50.060Z,11.10
2022-10-24T04:30:19.768Z,11.10
2022-10-24T04:32:48.296Z,11.10
2022-10-24T04:35:16.712Z,11.10
2022-10-24T04:37:44.949Z,11.10
2022-10-24T04:40:13.413Z,11.10
2022-10-24T04:42:41.778Z,11.20
2022-10-24T04:45:12.476Z,11.20
2022-10-24T04:47:40.719Z,11.20
2022-10-24T04:50:10.183Z,11.20
2022-10-24T04:52:38.433Z,11.20
2022-10-24T04:55:07.321Z,11.30
2022-10-24T04:57:35.543Z,11.30
2022-10-24T05:00:04.767Z,11.30
2022-10-24T05:02:34.452Z,11.30
2022-10-24T05:05:02.829Z,11.40
2022-10-24T05:07:30.997Z,11.40
2022-10-24T05:09:59.392Z,11.50
2022-10-24T05:12:27.704Z,11.60
2022-10-24T05:14:56.053Z,11.50
2022-10-24T05:17:24.488Z,11.60
2022-10-24T05:19:54.173Z,11.60
2022-10-24T05:22:22.537Z,11.60
2022-10-24T05:24:50.942Z,11.60
2022-10-24T05:27:24.605Z,11.60
2022-10-24T05:29:53.136Z,11.60
2022-10-24T05:32:22.757Z,11.60
2022-10-24T05:34:51.544Z,11.50
2022-10-24T05:37:21.271Z,11.40
2022-10-24T05:39:49.549Z,11.40
2022-10-24T05:42:18.080Z,11.40
2022-10-24T05:44:46.418Z,11.30
2022-10-24T05:47:14.624Z,11.30
2022-10-24T05:49:42.806Z,11.40
2022-10-24T05:52:10.985Z,11.40
2022-10-24T05:54:55.352Z,11.30
2022-10-24T05:57:30.103Z,11.30
2022-10-24T05:59:58.394Z,11.20
2022-10-24T06:02:26.680Z,11.20
2022-10-24T06:04:56.241Z,11.20
2022-10-24T06:07:24.839Z,11.30
2022-10-24T06:09:54.540Z,11.30
2022-10-24T06:12:22.741Z,11.40
2022-10-24T06:14:51.031Z,11.30
2022-10-24T06:17:19.300Z,11.30
2022-10-24T06:22:17.865Z,11.40
2022-10-24T06:24:46.082Z,11.50
2022-10-24T06:27:15.793Z,11.60
2022-10-24T06:29:44.403Z,11.60
2022-10-24T06:32:12.934Z,11.70
2022-10-24T06:34:41.149Z,11.80
2022-10-24T06:37:09.406Z,11.80
2022-10-24T06:39:37.635Z,11.90
2022-10-24T06:42:06.024Z,12.00
2022-10-24T06:44:35.900Z,12.00
2022-10-24T06:47:04.187Z,12.00
2022-10-24T06:49:32.513Z,12.10
2022-10-24T06:52:00.717Z,12.10
2022-10-24T06:54:30.385Z,12.20
2022-10-24T06:56:58.918Z,12.30
2022-10-24T06:59:27.503Z,12.40
2022-10-24T07:02:01.752Z,12.40
2022-10-24T07:04:33.233Z,12.50
2022-10-24T07:07:01.409Z,12.60
2022-10-24T07:09:30.622Z,12.60
2022-10-24T07:11:59.496Z,12.60
2022-10-24T07:14:28.455Z,12.70
2022-10-24T07:16:58.404Z,12.80
2022-10-24T07:19:26.731Z,12.90
2022-10-24T07:21:54.915Z,12.90
2022-10-24T07:24:23.105Z,13.00
2022-10-24T07:26:51.455Z,13.10
2022-10-24T07:29:20.034Z,13.30
2022-10-24T07:31:49.287Z,13.50
2022-10-24T07:34:18.898Z,13.70
2022-10-24T07:36:47.169Z,13.80
2022-10-24T07:39:15.437Z,14.00
2022-10-24T07:41:43.825Z,14.10
2022-10-24T07:44:12.200Z,14.20
2022-10-24T07:46:42.336Z,14.60
2022-10-24T07:49:11.109Z,14.90
2022-10-24T07:51:43.453Z,15.00
2022-10-24T07:54:11.641Z,15.00
2022-10-24T07:56:39.905Z,15.00
2022-10-24T07:59:09.501Z,15.10
2022-10-24T08:01:41.942Z,15.10
2022-10-24T08:04:11.014Z,15.20
2022-10-24T08:06:42.851Z,15.40
2022-10-24T08:09:11.035Z,15.60
2022-10-24T08:11:41.460Z,15.70
2022-10-24T08:14:12.316Z,15.70
2022-10-24T08:16:42.783Z,15.60
2022-10-24T08:19:13.895Z,15.70
2022-10-24T08:21:43.835Z,15.70
2022-10-24T08:24:12.150Z,15.70
2022-10-24T08:26:41.389Z,15.50
2022-10-24T08:29:11.576Z,15.60
2022-10-24T08:31:40.267Z,15.80
2022-10-24T08:34:11.229Z,16.10
2022-10-24T08:36:39.434Z,16.00
2022-10-24T08:39:08.981Z,16.00
2022-10-24T08:41:39.725Z,16.40
2022-10-24T08:44:17.805Z,16.90
2022-10-24T08:46:52.975Z,17.60
2022-10-24T08:49:29.639Z,18.40
2022-10-24T08:52:02.654Z,18.80
2022-10-24T08:54:37.897Z,19.30
2022-10-24T08:57:07.781Z,19.40
2022-10-24T08:59:37.804Z,19.00
2022-10-24T09:02:14.658Z,18.80
2022-10-24T09:04:48.904Z,18.70
2022-10-24T09:07:20.273Z,19.20
2022-10-24T09:09:52.784Z,19.40
2022-10-24T09:12:22.187Z,19.60
2022-10-24T09:14:59.176Z,19.40
2022-10-24T09:17:32.341Z,19.10
2022-10-24T09:20:02.373Z,18.60
2022-10-24T09:22:34.765Z,18.40
2022-10-24T09:25:08.234Z,18.10
2022-10-24T09:27:39.011Z,17.90
2022-10-24T09:30:12.901Z,17.80
2022-10-24T09:32:43.435Z,17.80
2022-10-24T09:35:18.961Z,17.80
2022-10-24T09:37:49.764Z,17.70
2022-10-24T09:40:22.362Z,17.70
2022-10-24T09:42:56.887Z,17.80
2022-10-24T09:45:42.733Z,18.00
2022-10-24T09:48:26.085Z,18.30
2022-10-24T09:50:58.598Z,18.60
2022-10-24T09:53:29.395Z,18.80
2022-10-24T09:56:02.537Z,18.90
2022-10-24T09:58:33.910Z,18.70
2022-10-24T10:01:06.389Z,18.40
2022-10-24T10:03:35.923Z,18.10
2022-10-24T10:06:15.538Z,18.10
2022-10-24T10:08:51.257Z,18.30
2022-10-24T10:11:26.747Z,18.30
2022-10-24T10:13:55.725Z,18.40
2022-10-24T10:16:26.651Z,18.30
2022-10-24T10:19:03.682Z,18.30
2022-10-24T10:21:53.902Z,18.30
2022-10-24T10:24:26.817Z,18.20
2022-10-24T10:26:56.563Z,18.10
2022-10-24T10:29:25.415Z,18.20
2022-10-24T10:32:01.596Z,18.20
2022-10-24T10:34:38.533Z,18.10
2022-10-24T10:37:27.555Z,18.00
2022-10-24T10:40:14.295Z,17.90
2022-10-24T10:42:57.111Z,17.90
2022-10-24T10:45:36.315Z,18.00
2022-10-24T10:48:26.070Z,18.20
2022-10-24T10:51:02.233Z,18.30
2022-10-24T10:53:40.191Z,18.20
2022-10-24T10:56:26.205Z,18.20
2022-10-24T10:59:06.051Z,18.10
2022-10-24T11:01:48.448Z,17.90
2022-10-24T11:04:26.512Z,17.90
2022-10-24T11:09:32.572Z,17.80
2022-10-24T11:12:07.434Z,17.90
2022-10-24T11:14:40.110Z,17.80
2022-10-24T11:17:21.206Z,17.80
2022-10-24T11:19:57.931Z,17.80
2022-10-24T11:22:30.636Z,17.80
2022-10-24T11:25:02.766Z,17.90
2022-10-24T11:27:39.957Z,17.90
2022-10-24T11:30:16.707Z,17.80
2022-10-24T11:32:51.857Z,17.80
2022-10-24T11:35:28.854Z,17.80
2022-10-24T11:38:01.893Z,17.70
2022-10-24T11:40:31.695Z,17.80
2022-10-24T11:43:09.808Z,17.70
2022-10-24T11:45:46.840Z,17.70
2022-10-24T11:48:20.595Z,17.60
2022-10-24T11:50:52.556Z,17.40
2022-10-24T11:53:48.419Z,17.30
2022-10-24T11:56:24.968Z,17.10
2022-10-24T11:59:00.694Z,17.00
2022-10-24T12:01:48.548Z,16.90
2022-10-24T12:04:48.960Z,16.80
2022-10-24T12:07:41.009Z,16.80
2022-10-24T12:10:35.860Z,16.70
2022-10-24T12:13:37.827Z,16.60
2022-10-24T12:16:17.154Z,16.50
2022-10-24T12:18:48.963Z,16.40
2022-10-24T12:21:25.692Z,16.40
2022-10-24T12:23:56.403Z,16.30
2022-10-24T12:26:28.983Z,16.30
2022-10-24T12:28:58.619Z,16.20
2022-10-24T12:31:30.310Z,16.20
2022-10-24T12:34:31.995Z,16.20
2022-10-24T12:37:12.242Z,16.10
2022-10-24T12:39:47.101Z,16.10
2022-10-24T12:42:18.018Z,16.00
2022-10-24T12:44:50.516Z,16.00
2022-10-24T12:48:10.705Z,16.00
2022-10-24T12:51:21.526Z,16.00
2022-10-24T12:54:06.807Z,16.00
2022-10-24T12:56:35.529Z,16.00
2022-10-24T12:59:18.836Z,15.90
2022-10-24T13:01:48.971Z,15.80
2022-10-24T13:04:50.550Z,15.70
2022-10-24T13:07:48.635Z,15.80
2022-10-24T13:10:35.602Z,15.70
2022-10-24T13:13:33.328Z,15.70
2022-10-24T13:16:08.017Z,15.70
2022-10-24T13:18:48.559Z,15.70
2022-10-24T13:21:24.606Z,15.70
2022-10-24T13:23:53.370Z,15.60
2022-10-24T13:26:42.797Z,15.60
2022-10-24T13:29:16.274Z,15.60
2022-10-24T13:31:49.996Z,15.50
2022-10-24T13:34:27.833Z,15.50
2022-10-24T13:37:15.693Z,15.40
2022-10-24T13:39:49.102Z,15.30
2022-10-24T13:42:26.728Z,15.10
2022-10-24T13:45:00.130Z,15.10
2022-10-24T13:47:33.484Z,15.10
2022-10-24T13:50:08.706Z,15.00
2022-10-24T13:52:49.087Z,15.00
2022-10-24T13:55:26.004Z,15.00
2022-10-24T13:58:00.478Z,15.00
2022-10-24T14:00:30.446Z,15.00
2022-10-24T14:03:02.370Z,15.00
2022-10-24T14:05:37.371Z,15.00
2022-10-24T14:08:08.282Z,14.90
2022-10-24T14:10:36.813Z,15.00
2022-10-24T14:13:06.451Z,15.10
2022-10-24T14:15:34.816Z,15.10
2022-10-24T14:18:07.267Z,15.10
2022-10-24T14:20:37.410Z,15.10
2022-10-24T14:23:24.354Z,15.10
2022-10-24T14:25:56.355Z,15.20
2022-10-24T14:28:36.502Z,15.20
2022-10-24T14:31:10.093Z,15.30
2022-10-24T14:33:45.040Z,15.20
2022-10-24T14:36:14.352Z,15.20
2022-10-24T14:38:43.697Z,15.20
2022-10-24T14:41:12.185Z,15.20
2022-10-24T14:43:45.028Z,15.10
2022-10-24T14:46:33.395Z,15.00
2022-10-24T14:49:24.775Z,14.90
2022-10-24T14:51:55.050Z,14.80
2022-10-24T14:54:25.527Z,14.70
2022-10-24T14:56:54.564Z,14.60
2022-10-24T14:59:29.446Z,14.60
2022-10-24T15:02:00.775Z,14.60
2022-10-24T15:04:37.525Z,14.60
2022-10-24T15:07:27.836Z,14.50
2022-10-24T15:09:57.518Z,14.50
2022-10-24T15:12:29.040Z,14.50
2022-10-24T15:15:22.540Z,14.50
2022-10-24T15:17:54.815Z,14.70
2022-10-24T15:20:27.513Z,14.70
2022-10-24T15:22:58.213Z,14.80
2022-10-24T15:25:30.791Z,14.90
2022-10-24T15:28:00.567Z,14.80
2022-10-24T15:30:33.461Z,14.70
2022-10-24T15:33:03.286Z,14.60
2022-10-24T15:35:35.330Z,14.50
2022-10-24T15:38:06.505Z,14.40
2022-10-24T15:40:36.037Z,14.30
2022-10-24T15:43:04.296Z,14.20
2022-10-24T15:45:34.792Z,14.10
2022-10-24T15:48:03.008Z,14.00
2022-10-24T15:50:31.306Z,13.90
2022-10-24T15:53:04.661Z,13.80
2022-10-24T15:55:36.600Z,13.70
2022-10-24T15:58:05.005Z,13.60
2022-10-24T16:00:34.775Z,13.50
2022-10-24T16:03:04.643Z,13.40
2022-10-24T16:05:37.900Z,13.30
2022-10-24T16:08:06.450Z,13.20
2022-10-24T16:10:34.792Z,13.20
2022-10-24T16:13:03.082Z,13.30
2022-10-24T16:15:36.288Z,13.40
2022-10-24T16:18:05.153Z,13.50
2022-10-24T16:20:36.617Z,13.50
2022-10-24T16:23:05.657Z,13.40
2022-10-24T16:25:39.150Z,13.40
2022-10-24T16:28:08.416Z,13.40
2022-10-24T16:30:40.433Z,13.30
2022-10-24T16:33:09.310Z,13.30
2022-10-24T16:35:40.626Z,13.20
2022-10-24T16:38:10.464Z,13.10
2022-10-24T16:43:11.047Z,13.00
2022-10-24T16:45:40.860Z,13.00
2022-10-24T16:48:09.339Z,13.10
2022-10-24T16:50:37.691Z,13.20
2022-10-24T16:53:09.863Z,13.30
2022-10-24T16:55:38.598Z,13.40
2022-10-24T16:58:06.933Z,13.40
2022-10-24T17:00:35.233Z,13.40
2022-10-24T17:03:04.989Z,13.40
2022-10-24T17:05:36.270Z,13.40
2022-10-24T17:08:04.581Z,13.40
2022-10-24T17:10:32.902Z,13.40
2022-10-24T17:13:04.918Z,13.30
2022-10-24T17:15:33.217Z,13.10
2022-10-24T17:18:04.220Z,13.00
2022-10-24T17:20:34.018Z,12.90
2022-10-24T17:23:05.650Z,12.80
2022-10-24T17:25:37.873Z,12.70
2022-10-24T17:28:06.424Z,12.60
2022-10-24T17:30:35.238Z,12.50
2022-10-24T17:33:03.616Z,12.40
2022-10-24T17:35:40.921Z,12.30
2022-10-24T17:38:20.072Z,12.30
2022-10-24T17:40:50.322Z,12.30
2022-10-24T17:43:22.623Z,12.30
2022-10-24T17:46:18.301Z,12.40
2022-10-24T17:48:58.940Z,12.50
2022-10-24T17:51:37.115Z,12.60
2022-10-24T17:54:06.367Z,12.60
2022-10-24T17:56:34.640Z,12.50
2022-10-24T17:59:02.938Z,12.30
2022-10-24T18:01:33.999Z,12.20
2022-10-24T18:04:02.412Z,12.20
2022-10-24T18:06:32.611Z,12.10
2022-10-24T18:09:01.251Z,12.00
2022-10-24T18:11:29.463Z,12.10
2022-10-24T18:13:57.821Z,12.00
2022-10-24T18:16:35.130Z,11.90
2022-10-24T18:19:06.618Z,11.70
2022-10-24T18:21:38.918Z,11.70
2022-10-24T18:24:08.793Z,11.50
2022-10-24T18:26:37.220Z,11.40
2022-10-24T18:29:05.877Z,11.40
2022-10-24T18:31:35.153Z,11.30
2022-10-24T18:34:08.572Z,11.20
2022-10-24T18:36:47.873Z,11.10
2022-10-24T18:39:16.404Z,11.20
2022-10-24T18:41:48.521Z,11.30
2022-10-24T18:44:28.960Z,11.30
2022-10-24T18:46:59.966Z,11.30
2022-10-24T18:49:29.050Z,11.40
2022-10-24T18:52:08.088Z,11.50
2022-10-24T18:54:38.398Z,11.40
2022-10-24T18:57:25.776Z,11.30
2022-10-24T18:59:55.046Z,11.50
2022-10-24T19:02:30.546Z,11.50
2022-10-24T19:05:08.409Z,11.60
2022-10-24T19:07:38.395Z,11.70
2022-10-24T19:10:07.552Z,11.70
2022-10-24T19:12:39.141Z,11.80
2022-10-24T19:15:08.445Z,11.80
2022-10-24T19:17:36.894Z,11.80
2022-10-24T19:20:05.821Z,11.70
2022-10-24T19:22:34.204Z,11.60
2022-10-24T19:25:03.846Z,11.60
2022-10-24T19:27:34.780Z,11.60
2022-10-24T19:30:03.188Z,11.70
2022-10-24T19:32:34.317Z,11.70
2022-10-24T19:35:02.605Z,11.80
2022-10-24T19:37:30.827Z,11.90
2022-10-24T19:39:59.139Z,12.00
2022-10-24T19:42:31.858Z,12.00
2022-10-24T19:45:00.126Z,12.00
2022-10-24T19:47:28.405Z,12.10
2022-10-24T19:49:56.672Z,12.00
2022-10-24T19:52:24.857Z,12.00
2022-10-24T19:54:55.863Z,11.90
2022-10-24T19:57:24.115Z,11.80
2022-10-24T19:59:53.932Z,11.70
2022-10-24T20:02:26.479Z,11.80
2022-10-24T20:04:54.755Z,11.80
2022-10-24T20:07:23.377Z,11.80
2022-10-24T20:09:51.546Z,11.80
2022-10-24T20:12:19.898Z,11.70
2022-10-24T20:14:48.100Z,11.70
2022-10-24T20:17:17.804Z,11.70
2022-10-24T20:19:46.107Z,11.80
2022-10-24T20:22:14.338Z,11.80
2022-10-24T20:24:42.615Z,11.90
2022-10-24T20:27:10.836Z,11.90
2022-10-24T20:29:39.418Z,12.00
2022-10-24T20:32:07.886Z,12.00
2022-10-24T20:34:37.584Z,12.00
2022-10-24T20:37:08.157Z,12.00
2022-10-24T20:39:37.536Z,12.00
2022-10-24T20:42:06.282Z,12.00
2022-10-24T20:44:37.696Z,12.00
2022-10-24T20:47:06.174Z,11.90
2022-10-24T20:49:34.407Z,11.80
2022-10-24T20:52:04.142Z,11.60
2022-10-24T20:54:32.372Z,11.60
2022-10-24T20:57:00.601Z,11.50
2022-10-24T20:59:28.916Z,11.50
2022-10-24T21:01:57.234Z,11.40
2022-10-24T21:04:25.663Z,11.30
2022-10-24T21:06:53.977Z,11.20
2022-10-24T21:09:23.737Z,11.20
2022-10-24T21:11:52.110Z,11.20
2022-10-24T21:14:21.528Z,11.30
2022-10-24T21:16:49.896Z,11.30
2022-10-24T21:19:18.223Z,11.20
2022-10-24T21:21:46.455Z,11.30
2022-10-24T21:24:17.831Z,11.30
2022-10-24T21:26:47.512Z,11.40
2022-10-24T21:29:32.218Z,11.40
2022-10-24T21:32:02.009Z,11.50
2022-10-24T21:34:33.411Z,11.40
2022-10-24T21:37:03.593Z,11.30
2022-10-24T21:39:32.054Z,11.20
2022-10-24T21:42:01.699Z,11.10
2022-10-24T21:44:29.954Z,11.10
2022-10-24T21:46:58.311Z,11.00
2022-10-24T21:49:26.694Z,11.00
2022-10-24T21:51:54.929Z,11.00
2022-10-24T21:54:24.817Z,11.10
2022-10-24T21:56:53.177Z,11.30
2022-10-24T21:59:23.678Z,11.40
2022-10-24T22:01:53.051Z,11.50
2022-10-24T22:04:21.801Z,11.50
2022-10-24T22:06:50.133Z,11.40
2022-10-24T22:09:20.921Z,11.30
2022-10-24T22:11:49.192Z,11.30
2022-10-24T22:14:19.276Z,11.20
2022-10-24T22:16:49.034Z,11.20
2022-10-24T22:19:17.511Z,11.20
2022-10-24T22:21:47.369Z,11.20
2022-10-24T22:24:18.526Z,11.20
2022-10-24T22:26:47.513Z,11.10
2022-10-24T22:29:18.631Z,11.10
2022-10-24T22:31:49.098Z,11.20
2022-10-24T22:34:19.636Z,11.20
2022-10-24T22:37:00.979Z,11.20
2022-10-24T22:39:29.980Z,11.30
2022-10-24T22:41:58.682Z,11.40
2022-10-24T22:44:27.490Z,11.40
2022-10-24T22:47:24.390Z,11.40
2022-10-24T22:50:03.928Z,11.40
2022-10-24T22:52:32.658Z,11.50
2022-10-24T22:55:03.841Z,11.50
2022-10-24T22:57:33.035Z,11.40
2022-10-24T23:00:01.593Z,11.40
2022-10-24T23:02:36.635Z,11.40
2022-10-24T23:05:07.699Z,11.40
2022-10-24T23:07:47.053Z,11.30
2022-10-24T23:10:20.142Z,11.40
2022-10-24T23:12:49.622Z,11.40
2022-10-24T23:15:20.661Z,11.40
2022-10-24T23:17:51.216Z,11.40
2022-10-24T23:20:30.728Z,11.30
2022-10-24T23:23:16.361Z,11.30
2022-10-24T23:25:51.415Z,11.30
2022-10-24T23:28:25.571Z,11.20
2022-10-24T23:30:54.421Z,11.20
2022-10-24T23:33:27.738Z,11.20
2022-10-24T23:35:59.356Z,11.20
2022-10-24T23:38:28.552Z,11.10
2022-10-24T23:40:59.173Z,11.10
2022-10-24T23:43:27.899Z,11.10
2022-10-24T23:46:01.055Z,11.10
2022-10-24T23:48:49.757Z,11.00
2022-10-24T23:51:24.783Z,11.00
2022-10-24T23:53:55.088Z,11.00
2022-10-24T23:56:25.170Z,11.20
2022-10-24T23:58:54.275Z,11.30
